• Join FlightAware (Why Join?)
  • Login
  • US Flag 
03:25AM EDT


 

Airport Tracker/Info


-or-


 

Live Flight TrackerFlight Track Log ✈ UAL1283 ✈ 31-Jul-2013 ✈ KDEN - KORD

Flight Track Log - Related Links

Times and Time Zones

All times are in EDT time to prevent confusion due to time zone crossing. See the UAL1283 flight status page for this flight to view local times or setup timezone preferences in your user account.

Time Position Orientation Groundspeed Altitude Reporting Facility
EDT Latitude Longitude Course Direction KTS MPH feet Rate Location/Type
03:22PM 39.8833 -104.5833 78° East 196 226 6,600  Level Denver TRACON
03:23PM 39.9000 -104.5167 72° East 255 293 8,200 2,100 Climbing Denver TRACON
03:24PM 39.9167 -104.4167 78° East 300 345 10,600 2,340 Climbing Denver TRACON
03:25PM 39.9333 -104.2007 78° East  Level FlightAware Approximate
03:25PM 39.9333 -104.3000 79° East 336 387 12,900  Level Denver TRACON
03:26PM 39.9635 -104.0459 72° East  Level FlightAware Approximate
03:26PM 39.9536 -104.2369 67° East 342 394 14,400  Level Denver Center
03:27PM 39.9854 -103.8897 75° East  Level FlightAware Approximate
03:27PM 39.9781 -104.1011 77° East 361 415 17,300  Level Denver Center
03:28PM 40.0213 -103.7387 78° East  Level FlightAware Approximate
03:28PM 39.9922 -103.9656 82° East 379 436 19,300  Level Denver Center
03:29PM 40.0147 -103.8128 79° East 399 459 21,800 2,160 Climbing Denver Center
03:30PM 40.0397 -103.6639 78° East 392 451 23,800 1,740 Climbing Denver Center
03:31PM 40.0636 -103.5089 79° East 433 498 25,500 1,620 Climbing Denver Center
03:32PM 40.0894 -103.3492 78° East 448 516 27,200 1,500 Climbing Denver Center
03:33PM 40.1222 -103.1511 78° East 466 536 29,000 1,380 Climbing Denver Center
03:34PM 40.1492 -102.9806 78° East 479 551 30,400 1,200 Climbing Denver Center
03:35PM 40.1744 -102.8036 79° East 494 568 31,500 1,080 Climbing Denver Center
03:36PM 40.2344 -102.5989 69° East 501 577 32,700 1,200 Climbing Denver Center
03:37PM 40.3181 -102.4664 50° Northeast 491 565 34,100 1,080 Climbing Denver Center
03:38PM 40.3989 -102.3311 52° Northeast 492 566 35,000 720 Climbing Denver Center
03:39PM 40.4939 -102.1719 52° Northeast 495 570 35,600 840 Climbing Denver Center
03:40PM 40.5750 -102.0369 52° Northeast 491 565 36,800 960 Climbing Denver Center
03:41PM 40.6697 -101.8800 51° Northeast 491 565 37,600 720 Climbing Denver Center
03:43PM 40.7517 -101.7431 52° Northeast 496 571 38,400 660 Climbing Denver Center
03:44PM 40.8458 -101.5844 52° Northeast 490 564 39,000 240 Climbing Denver Center
03:45PM 40.9242 -101.4472 53° Northeast 487 560 39,000  Level Denver Center
03:46PM 41.0175 -101.2886 52° Northeast 487 560 39,000  Level Denver Center
03:47PM 41.0972 -101.1519 52° Northeast 487 560 39,000  Level Denver Center
03:48PM 41.1772 -101.0147 52° Northeast 486 559 39,000  Level Denver Center
03:49PM 41.2553 -100.8397 59° Northeast 496 571 39,000  Level Denver Center
03:50PM 41.2972 -100.6653 72° East 511 588 39,000  Level Denver Center
03:51PM 41.3450 -100.4636 72° East 509 586 39,000  Level Denver Center
03:52PM 41.3864 -100.2914 72° East 508 585 39,000  Level Denver Center
03:53PM 41.4331 -100.0881 73° East 512 589 39,000  Level Denver Center
03:54PM 41.4744 -99.9158 72° East 510 587 39,000  Level Denver Center
03:55PM 41.5194 -99.7142 73° East 513 590 39,000  Level Denver Center
03:56PM 41.5611 -99.5317 73° East 513 590 39,000  Level Denver Center
03:57PM 41.6025 -99.3478 73° East 513 590 39,000  Level Denver Center
03:58PM 41.6442 -99.1636 73° East 515 593 39,000  Level Minneapolis Center
03:59PM 41.6853 -98.9778 73° East 516 594 39,000  Level Denver Center
04:00PM 41.7364 -98.7969 69° East 517 595 39,000  Level Denver Center
04:01PM 41.8111 -98.6386 58° Northeast 504 580 39,000  Level Denver Center
04:02PM 41.8706 -98.5139 57° Northeast 499 574 39,000  Level Minneapolis Center
04:03PM 41.9747 -98.2961 57° Northeast 494 568 39,000  Level Minneapolis Center
04:04PM 42.0472 -98.1444 57° Northeast 494 568 39,000  Level Minneapolis Center
04:05PM 42.1239 -97.9847 57° Northeast 494 568 39,000  Level Minneapolis Center
04:06PM 42.1981 -97.8300 57° Northeast 492 566 39,000  Level Minneapolis Center
04:07PM 42.2361 -97.6492 74° East 510 587 39,000  Level Minneapolis Center
04:08PM 42.2603 -97.4578 80° East 516 594 39,000  Level Minneapolis Center
04:09PM 42.2892 -97.2272 80° East 519 597 39,000  Level Minneapolis Center
04:10PM 42.3128 -97.0347 81° East 518 596 39,000  Level Minneapolis Center
04:11PM 42.3350 -96.8431 81° East 517 595 39,000  Level Minneapolis Center
04:12PM 42.3589 -96.6497 80° East 519 597 39,000  Level Minneapolis Center
04:14PM 42.3814 -96.4578 81° East 517 595 39,000  Level Minneapolis Center
04:15PM 42.4031 -96.2642 81° East 518 596 39,000  Level Minneapolis Center
04:16PM 42.4292 -96.0333 81° East 517 595 39,000  Level Minneapolis Center
04:17PM 42.4408 -95.7944 86° East 521 600 39,000  Level Minneapolis Center
04:18PM 42.4478 -95.5986 87° East 525 604 39,000  Level Minneapolis Center
04:19PM 42.4553 -95.4006 87° East 525 604 39,000  Level Minneapolis Center
04:20PM 42.4603 -95.2442 87° East 523 602 39,000  Level Minneapolis Center
04:21PM 42.4689 -95.0058 87° East 525 604 39,000  Level Minneapolis Center
04:22PM 42.4739 -94.8083 88° East 524 603 39,000  Level Minneapolis Center
04:23PM 42.4808 -94.5711 88° East 525 604 39,000  Level Minneapolis Center
04:24PM 42.4842 -94.4058 88° East 524 603 39,000  Level Minneapolis Center
04:25PM 42.4906 -94.1719 88° East 523 602 39,000  Level Minneapolis Center
04:26PM 42.4939 -93.9781 89° East 521 600 39,000  Level Minneapolis Center
04:27PM 42.4983 -93.7867 88° East 517 595 39,000  Level Minneapolis Center
04:28PM 42.5036 -93.5953 88° East 515 593 39,000  Level Minneapolis Center
04:29PM 42.5072 -93.4044 88° East 512 589 39,000  Level Minneapolis Center
04:30PM 42.5114 -93.1761 89° East 511 588 39,000  Level Minneapolis Center
04:31PM 42.5122 -93.0608 89° East 510 587 39,000 -480 Level Chicago Center
04:32PM 42.5150 -92.8708 89° East 511 588 38,300 -660 Descending Chicago Center
04:34PM 42.5206 -92.4744 89° East 532 612 37,000 -420 Descending Chicago Center
04:35PM 42.4914 -92.2408 100° East 542 624 37,000 -660 Level Chicago Center
04:36PM 42.4503 -92.0514 106° East 535 616 35,700 -1,920 Descending Chicago Center
04:37PM 42.4192 -91.8581 102° East 538 619 33,100 -1,320 Descending Chicago Center
04:38PM 42.4294 -91.6636 86° East 531 611 33,000 -60 Descending Chicago Center
04:39PM 42.4417 -91.4317 86° East 528 608 33,000 -360 Level Chicago Center
04:40PM 42.4508 -91.2414 86° East 520 598 32,300 -1,320 Descending Chicago Center
04:41PM 42.4614 -91.0508 86° East 516 594 30,300 -1,740 Descending Chicago Center
04:42PM 42.4686 -90.8736 87° East 480 552 28,800 -1,860 Descending Chicago Center
04:43PM 42.4786 -90.6781 86° East 442 509 26,500 -1,980 Descending Chicago Center
04:44PM 42.4875 -90.5219 86° East 425 489 24,700 -1,260 Descending Chicago Center
04:45PM 42.4936 -90.3686 87° East 413 475 24,000 -360 Descending Chicago Center
04:46PM 42.4997 -90.2164 87° East 410 472 24,000 -300 Level Chicago Center
04:47PM 42.5078 -90.0275 87° East 423 487 23,500 -1,260 Descending Chicago Center
04:49PM 42.5142 -89.8581 87° East 434 499 21,400 -1,980 Descending Chicago Center
04:50PM 42.5167 -89.7006 89° East 422 486 19,500 -1,800 Descending Chicago Center
04:51PM 42.5144 -89.5464 91° East 411 473 17,700 -1,740 Descending Chicago Center
04:52PM 42.5111 -89.3972 92° East 402 463 16,000 -1,320 Descending Chicago Center
04:53PM 42.5033 -89.2556 94° East 384 442 15,000 -900 Descending Chicago Center
04:54PM 42.4747 -89.0889 103° East 391 450 14,200 -1,260 Descending Chicago Center
04:55PM 42.4517 -88.9525 103° East 375 432 12,400 -1,680 Descending Chicago Center
04:56PM 42.4297 -88.8219 103° East 359 413 10,700 -1,200 Descending Chicago Center
04:57PM 42.4100 -88.6989 102° East 338 389 10,000 -360 Descending Chicago Center
04:58PM 42.3878 -88.5750 104° East 339 390 10,000  Level Chicago Center
04:59PM 42.3536 -88.4356 108° East 336 387 10,000  Level Chicago Center
05:00PM 42.2919 -88.3342 129° Southeast 350 403 10,000  Level Chicago Center
05:01PM 42.2275 -88.2347 131° Southeast 350 403 10,000  Level Chicago Center
05:02PM 42.1622 -88.1361 132° Southeast 352 405 10,000 -300 Level Chicago Center
05:03PM 42.1314 -88.0200 110° East 324 373 9,500 -1,020 Descending Chicago Center
05:04PM 42.1089 -87.8933 103° East 302 348 8,000 -1,260 Descending Chicago Center
05:05PM 42.0911 -87.7872 103° East 293 337 7,000 -1,200 Descending Chicago Center
05:06PM 42.0911 -87.6800 90° East 286 329 5,600 -1,200 Descending Chicago Center
05:07PM 42.0908 -87.5825 90° East 282 325 4,600 -540 Descending Chicago Center
05:09PM 42.0333 -87.4333 117° Southeast 263 303 4,100 -240 Descending Chicago TRACON
05:10PM 42.0000 -87.5000 236° Southwest 219 252 4,000 -60 Descending Chicago TRACON
05:11PM 42.0000 -87.5833 270° West 215 247 4,000  Level Chicago TRACON